Latest Weather Observations for Laverton

IDV60801

Issued at 9:12 pm EST Thursday 20 June 2019 (issued every 10 minutes, with the page automatically refreshed every 10 minutes)

About weather observations | Map of weather stations | Latest weather observations for VIC | Other Formats
Station Details ID: 087031 Name: LAVERTON RAAF Lat: -37.86 Lon: 144.76 Height: 20.1 m
Data from the previous 72 hours. | See also: Recent months at Laverton
Date/Time
EST
Temp
°C
App
Temp
°C
Dew
Point
°C
Rel
Hum
%
Delta-T
°C
Wind Press
QNH
hPa
Press
MSL
hPa
Rain since
9am
mm
Dir  Spd
km/h
Gust
km/h
Spd
kts
Gust
kts
20/09:00pm 5.9 3.2 5.8 99 0.0 W 9 11 5 6 1026.8 1026.8 0.8
20/08:30pm 5.9 3.2 5.6 98 0.1 W 9 11 5 6 1026.8 1026.8 0.8
20/08:00pm 6.4 3.7 5.8 96 0.3 W 9 11 5 6 1026.6 1026.6 0.8
20/07:30pm 7.5 4.9 6.1 91 0.6 W 9 13 5 7 1026.6 1026.6 0.8
20/07:00pm 8.2 5.6 6.2 87 0.9 W 9 13 5 7 1026.5 1026.5 0.8
20/06:30pm 8.3 5.3 6.1 86 1.0 W 11 15 6 8 1026.1 1026.1 0.8
20/06:00pm 8.4 5.0 6.0 85 1.1 W 13 20 7 11 1025.8 1025.8 0.8
20/05:30pm 8.7 6.1 6.2 84 1.1 SW 9 17 5 9 1025.6 1025.6 0.8
20/05:00pm 9.0 6.1 6.4 84 1.2 WSW 11 15 6 8 1025.2 1025.2 0.8
20/04:30pm 9.0 6.7 7.5 90 0.7 WSW 9 17 5 9 1025.0 1025.0 0.8
20/04:00pm 9.3 5.6 6.4 82 1.3 SW 15 20 8 11 1025.0 1025.0 0.4
20/03:30pm 9.4 6.4 5.9 79 1.6 S 11 15 6 8 1024.9 1024.9 0.4
20/03:00pm 9.4 6.6 7.0 85 1.1 S 11 13 6 7 1025.0 1025.0 0.4
20/02:30pm 9.3 5.7 6.9 85 1.1 SW 15 19 8 10 1025.0 1025.0 0.2
20/02:00pm 8.7 6.4 7.3 91 0.7 SW 9 13 5 7 1025.0 1025.0 0.2
20/01:49pm 8.7 6.0 7.5 92 0.6 WSW 11 15 6 8 1025.1 1025.1 0.2
20/01:30pm 8.8 4.4 6.6 86 1.0 SW 19 24 10 13 1025.3 1025.3 0.0
20/01:00pm 9.7 5.1 5.5 75 1.9 SW 19 26 10 14 1025.5 1025.5 0.0
20/12:30pm 9.8 6.0 5.8 76 1.8 WSW 15 19 8 10 1025.7 1025.7 0.0
20/12:00pm 9.5 5.8 6.2 80 1.5 WSW 15 22 8 12 1026.1 1026.1 0.0
20/11:30am 9.2 5.9 6.6 84 1.2 WSW 13 19 7 10 1026.4 1026.4 0.0
20/11:00am 8.6 5.4 6.9 89 0.8 W 13 17 7 9 1026.6 1026.6 0.0
20/10:30am 8.0 4.8 6.9 93 0.5 W 13 17 7 9 1026.7 1026.7 0.0
20/10:00am 7.6 4.6 7.5 99 0.0 WNW 13 17 7 9 1026.6 1026.6 0.0
20/09:30am 7.3 4.2 7.2 99 0.0 WNW 13 17 7 9 1026.6 1026.6 0.0
20/09:00am 7.1 3.2 7.0 99 0.0 WNW 17 20 9 11 1026.5 1026.5 1.6
20/08:30am 7.0 3.8 6.9 99 0.0 W 13 17 7 9 1026.5 1026.5 1.4
20/08:00am 6.8 2.8 6.7 99 0.0 W 17 20 9 11 1026.4 1026.4 1.2
20/07:30am 6.8 3.5 6.5 98 0.1 W 13 17 7 9 1026.3 1026.3 0.8
20/07:00am 6.6 4.0 6.2 97 0.2 W 9 15 5 8 1026.1 1026.1 0.8
20/06:30am 6.5 3.1 5.9 96 0.3 W 13 17 7 9 1025.7 1025.7 0.8
20/06:00am 6.9 2.8 6.0 94 0.4 W 17 22 9 12 1025.6 1025.6 0.8
20/05:30am 6.9 2.9 6.5 97 0.2 W 17 22 9 12 1025.5 1025.5 0.8
20/05:00am 6.8 3.2 6.7 99 0.0 WNW 15 19 8 10 1025.4 1025.4 0.6
20/04:30am 6.9 3.6 6.6 98 0.1 W 13 17 7 9 1025.6 1025.6 0.6
20/04:00am 7.1 4.2 6.7 97 0.2 WNW 11 15 6 8 1025.6 1025.6 0.6
20/03:30am 7.0 5.0 6.9 99 0.0 WNW 7 9 4 5 1025.7 1025.7 0.6
20/03:00am 7.0 4.6 6.9 99 0.0 WNW 9 11 5 6 1025.8 1025.8 0.4
20/02:30am 6.8 4.7 6.7 99 0.0 WNW 7 9 4 5 1025.9 1025.9 0.4
20/02:00am 6.7 4.2 6.6 99 0.0 NW 9 13 5 7 1025.9 1025.9 0.4
20/01:30am 6.3 3.7 6.2 99 0.0 WNW 9 9 5 5 1026.1 1026.1 0.4
20/01:00am 6.6 4.5 6.5 99 0.0 WNW 7 9 4 5 1026.1 1026.1 0.4
20/12:30am 6.9 4.8 6.5 97 0.2 WNW 7 7 4 4 1026.4 1026.4 0.4
20/12:00am 7.3 5.3 6.9 97 0.2 WNW 7 11 4 6 1026.4 1026.4 0.4
 
Date/Time
EST
Temp
°C
App
Temp
°C
Dew
Point
°C
Rel
Hum
%
Delta-T
°C
Wind Press
QNH
hPa
Press
MSL
hPa
Rain since
9am
mm
Dir  Spd
km/h
Gust
km/h
Spd
kts
Gust
kts
19/11:30pm 7.1 5.0 6.8 98 0.1 N 7 11 4 6 1026.5 1026.5 0.4
19/11:00pm 7.0 4.5 6.7 98 0.1 NNE 9 13 5 7 1026.5 1026.5 0.4
19/10:30pm 7.3 5.3 7.2 99 0.0 E 7 9 4 5 1026.7 1026.7 0.4
19/10:00pm 6.5 4.0 6.4 99 0.0 WNW 9 11 5 6 1026.5 1026.5 0.4
19/09:30pm 7.0 4.5 6.4 96 0.3 W 9 11 5 6 1026.4 1026.4 0.4
19/09:00pm 7.2 4.6 6.1 93 0.5 W 9 9 5 5 1026.5 1026.5 0.4
19/08:30pm 7.8 4.9 6.6 92 0.6 W 11 15 6 8 1026.6 1026.6 0.4
19/08:00pm 8.0 5.1 6.6 91 0.6 WSW 11 15 6 8 1026.7 1026.7 0.4
19/07:30pm 7.0 4.3 5.6 91 0.6 W 9 11 5 6 1026.5 1026.5 0.2
19/07:00pm 7.6 5.4 6.1 90 0.7 W 7 9 4 5 1026.5 1026.5 0.2
19/06:30pm 8.1 5.8 5.7 85 1.1 W 7 9 4 5 1026.3 1026.3 0.2
19/06:00pm 9.1 6.4 5.8 80 1.5 W 9 11 5 6 1026.2 1026.2 0.2
19/05:30pm 9.5 6.5 6.2 80 1.5 WSW 11 15 6 8 1026.2 1026.2 0.2
19/05:00pm 9.5 7.3 6.2 80 1.5 SSW 7 13 4 7 1026.1 1026.1 0.2
19/04:30pm 9.4 6.5 6.3 81 1.4 S 11 19 6 10 1026.2 1026.2 0.2
19/04:00pm 10.3 7.2 5.5 72 2.2 SW 11 13 6 7 1026.1 1026.1 0.0
19/03:30pm 10.5 7.4 5.5 71 2.3 WSW 11 15 6 8 1026.1 1026.1 0.0
19/03:00pm 10.2 7.7 6.5 78 1.7 SSW 9 13 5 7 1025.9 1025.9 0.0
19/02:30pm 10.5 6.2 6.8 78 1.7 SSW 19 32 10 17 1025.9 1025.9 0.0
19/02:00pm 10.0 7.7 7.4 84 1.2 WSW 9 15 5 8 1025.9 1025.9 0.0
19/01:38pm 9.0 6.3 7.5 90 0.7 SW 11 15 6 8 1026.2 1026.2 0.0
19/01:30pm 9.0 5.6 7.6 91 0.7 SSW 15 24 8 13 1026.3 1026.3 0.0
19/01:23pm 8.9 4.0 7.0 88 0.9 SSW 22 32 12 17 1026.3 1026.3 0.0
19/01:00pm 10.9 7.0 5.2 68 2.6 WSW 15 20 8 11 1026.3 1026.3 0.0
19/12:30pm 11.0 7.1 5.3 68 2.6 WSW 15 22 8 12 1026.4 1026.4 0.0
19/12:00pm 10.0 6.2 5.6 74 2.0 W 15 19 8 10 1026.5 1026.5 0.0
19/11:30am 9.6 5.3 5.4 75 1.9 SW 17 28 9 15 1027.1 1027.1 0.0
19/11:00am 10.0 6.0 5.0 71 2.2 WSW 15 22 8 12 1026.7 1026.7 0.0
19/10:30am 8.8 5.7 5.4 79 1.5 WSW 11 15 6 8 1026.9 1026.9 0.0
19/10:00am 7.6 4.7 4.9 83 1.2 WSW 9 13 5 7 1026.6 1026.6 0.0
19/09:30am 7.0 3.3 4.7 85 1.0 W 13 19 7 10 1026.4 1026.4 0.0
19/09:00am 6.3 2.9 4.1 86 0.9 W 11 17 6 9 1026.3 1026.3 2.8
19/08:30am 4.9 1.0 3.4 90 0.6 WNW 13 17 7 9 1025.8 1025.8 2.8
19/08:00am 5.0 1.1 3.2 88 0.7 WNW 13 17 7 9 1025.6 1025.6 2.8
19/07:30am 5.4 0.7 3.4 87 0.8 WNW 17 20 9 11 1025.3 1025.3 2.8
19/07:00am 5.3 1.1 3.6 89 0.7 WNW 15 20 8 11 1025.0 1025.0 2.8
19/06:30am 5.1 1.2 3.4 89 0.7 W 13 19 7 10 1024.7 1024.7 2.8
19/06:00am 5.0 0.7 3.5 90 0.6 W 15 19 8 10 1024.2 1024.2 2.8
19/05:30am 4.8 0.2 3.8 93 0.4 WNW 17 20 9 11 1023.8 1023.8 2.8
19/05:00am 4.3 0.4 3.6 95 0.3 WNW 13 17 7 9 1023.6 1023.6 2.8
19/04:30am 4.0 0.2 3.7 98 0.1 WNW 13 17 7 9 1023.5 1023.5 2.8
19/04:00am 3.6 0.1 3.3 98 0.1 NW 11 13 6 7 1023.6 1023.6 2.8
19/03:30am 2.7 -1.4 2.3 97 0.2 NW 13 15 7 8 1023.6 1023.6 2.8
19/03:00am 3.3 -0.3 2.9 97 0.2 WNW 11 13 6 7 1023.6 1023.6 2.6
19/02:30am 3.6 -0.8 2.7 94 0.4 WNW 15 17 8 9 1023.6 1023.6 2.6
19/02:00am 4.4 0.1 3.5 94 0.4 WNW 15 19 8 10 1023.6 1023.6 2.6
19/01:30am 4.1 -0.2 3.4 95 0.3 WNW 15 19 8 10 1023.6 1023.6 2.6
19/01:00am 4.3 0.4 3.4 94 0.4 WNW 13 17 7 9 1023.5 1023.5 2.6
19/12:30am 4.6 0.7 3.6 93 0.4 WNW 13 17 7 9 1023.5 1023.5 2.6
19/12:00am 4.6 0.4 3.6 93 0.4 WNW 15 17 8 9 1023.5 1023.5 2.6
 
Date/Time
EST
Temp
°C
App
Temp
°C
Dew
Point
°C
Rel
Hum
%
Delta-T
°C
Wind Press
QNH
hPa
Press
MSL
hPa
Rain since
9am
mm
Dir  Spd
km/h
Gust
km/h
Spd
kts
Gust
kts
18/11:30pm 4.3 0.0 3.3 93 0.4 WNW 15 17 8 9 1023.5 1023.5 2.6
18/11:00pm 4.5 0.6 3.2 91 0.5 NW 13 17 7 9 1023.4 1023.4 2.6
18/10:30pm 4.9 1.0 3.6 91 0.5 NW 13 15 7 8 1023.2 1023.2 2.6
18/10:00pm 5.4 1.9 3.6 88 0.7 WNW 11 15 6 8 1023.0 1023.0 2.6
18/09:30pm 6.3 2.1 3.8 84 1.1 WNW 15 22 8 12 1022.8 1022.8 2.6
18/09:00pm 7.3 2.8 4.3 81 1.3 W 17 20 9 11 1022.6 1022.6 2.6
18/08:30pm 7.2 2.3 4.3 82 1.3 W 19 24 10 13 1022.2 1022.2 2.6
18/08:00pm 7.1 2.7 4.6 84 1.1 WNW 17 22 9 12 1021.9 1021.9 2.6
18/07:30pm 7.8 3.1 5.1 83 1.2 WNW 19 26 10 14 1021.6 1021.6 2.6
18/07:00pm 7.7 3.8 5.5 86 1.0 W 15 24 8 13 1021.3 1021.3 2.6
18/06:30pm 7.9 4.0 5.5 85 1.1 WNW 15 20 8 11 1021.0 1021.0 2.6
18/06:00pm 7.7 4.6 5.7 87 0.9 WNW 11 15 6 8 1020.7 1020.7 2.6
18/05:30pm 8.1 5.0 5.7 85 1.1 WNW 11 13 6 7 1020.3 1020.3 2.6
18/05:00pm 9.3 5.2 6.2 81 1.4 W 17 22 9 12 1020.2 1020.2 2.6
18/04:30pm 9.7 6.2 7.3 85 1.1 WNW 15 19 8 10 1020.0 1020.0 2.6
18/04:00pm 9.2 6.5 7.3 88 0.9 WNW 11 13 6 7 1019.7 1019.7 2.6
18/03:30pm 8.9 6.2 7.4 90 0.7 W 11 15 6 8 1019.5 1019.5 2.6
18/03:00pm 8.8 3.9 6.8 87 0.9 WSW 22 30 12 16 1019.3 1019.3 2.6
18/02:51pm 8.7 3.8 6.8 88 0.9 WSW 22 33 12 18 1019.2 1019.2 2.4
18/02:41pm 8.7 2.6 6.5 86 1.0 WSW 28 39 15 21 1019.2 1019.2 2.4
18/02:30pm 9.0 2.6 6.8 86 1.0 WSW 30 43 16 23 1019.0 1019.0 2.0
18/02:00pm 10.3 4.0 7.4 82 1.4 WSW 30 39 16 21 1018.4 1018.4 1.8
18/01:39pm 9.9 4.3 7.2 83 1.3 WSW 26 43 14 23 1018.2 1018.2 1.8
18/01:30pm 9.9 2.9 7.0 82 1.4 WSW 33 46 18 25 1018.1 1018.1 1.8
18/01:21pm 10.9 4.2 7.2 78 1.8 W 32 46 17 25 1017.9 1017.9 1.4
18/01:15pm 12.0 5.9 6.5 69 2.6 W 28 46 15 25 1017.6 1017.6 1.4
18/01:00pm 12.3 7.3 6.6 68 2.7 W 22 30 12 16 1017.6 1017.6 1.4
18/12:30pm 12.3 7.3 6.6 68 2.7 W 22 32 12 17 1017.6 1017.6 1.4
18/12:00pm 12.1 6.5 7.0 71 2.4 WNW 26 37 14 20 1017.4 1017.4 1.4
18/11:30am 11.4 7.4 8.3 81 1.5 WNW 19 33 10 18 1017.7 1017.7 1.4
18/11:00am 11.4 7.4 8.1 80 1.6 NW 19 30 10 16 1017.8 1017.8 1.4
18/10:30am 10.8 7.3 8.7 87 1.0 NNW 17 20 9 11 1017.9 1017.9 1.4
18/10:00am 10.2 6.6 8.3 88 0.9 NNW 17 24 9 13 1017.6 1017.6 1.2
18/09:40am 10.0 6.4 8.3 89 0.8 NW 17 24 9 13 1017.6 1017.6 0.8
18/09:30am 10.2 7.3 8.3 88 0.9 NW 13 17 7 9 1017.6 1017.6 0.4
18/09:28am 10.2 7.3 8.3 88 0.9 NW 13 19 7 10 1017.5 1017.5 0.4
18/09:00am 10.7 6.4 6.8 77 1.8 NNW 19 26 10 14 1017.1 1017.1 0.2
18/08:30am 10.7 6.1 6.6 76 1.9 N 20 32 11 17 1016.7 1016.7 0.2
18/08:00am 10.4 6.8 6.7 78 1.7 N 15 20 8 11 1016.6 1016.6 0.2
18/07:30am 10.1 5.8 7.0 81 1.5 NNE 19 28 10 15 1016.1 1016.1 0.2
18/07:00am 10.0 5.7 6.9 81 1.5 N 19 28 10 15 1016.0 1016.0 0.2
18/06:30am 10.3 6.4 7.0 80 1.6 N 17 26 9 14 1016.1 1016.1 0.2
18/06:00am 10.5 6.6 7.0 79 1.7 N 17 26 9 14 1016.2 1016.2 0.2
18/05:30am 10.6 6.4 7.3 80 1.6 N 19 28 10 15 1015.9 1015.9 0.2
18/05:00am 10.7 6.3 7.6 81 1.5 NNE 20 30 11 16 1016.0 1016.0 0.2
18/04:30am 10.6 6.5 7.8 83 1.4 N 19 28 10 15 1016.5 1016.5 0.2
18/04:00am 11.0 6.9 7.7 80 1.6 N 19 28 10 15 1017.0 1017.0 0.2
18/03:30am 11.0 6.7 7.9 81 1.5 N 20 28 11 15 1017.3 1017.3 0.2
18/03:00am 11.2 6.5 7.9 80 1.6 N 22 35 12 19 1017.2 1017.2 0.2
18/02:30am 11.3 5.9 8.2 81 1.5 N 26 39 14 21 1017.1 1017.1 0.2
18/02:00am 11.5 6.2 8.4 81 1.5 N 26 43 14 23 1017.2 1017.2 0.2
18/01:30am 11.3 7.1 8.3 82 1.5 N 20 33 11 18 1017.3 1017.3 0.2
18/01:00am 10.8 6.7 8.6 86 1.1 N 20 30 11 16 1017.3 1017.3 0.2
18/12:30am 10.6 6.4 8.4 86 1.1 NNE 20 28 11 15 1017.7 1017.7 0.2
18/12:00am 10.7 6.5 8.3 85 1.2 NNE 20 30 11 16 1018.2 1018.2 0.2
 
Date/Time
EST
Temp
°C
App
Temp
°C
Dew
Point
°C
Rel
Hum
%
Delta-T
°C
Wind Press
QNH
hPa
Press
MSL
hPa
Rain since
9am
mm
Dir  Spd
km/h
Gust
km/h
Spd
kts
Gust
kts
17/11:30pm 10.5 6.3 8.3 86 1.1 NNE 20 30 11 16 1018.4 1018.4 0.2
17/11:00pm 10.1 5.9 8.2 88 0.9 NNE 20 28 11 15 1018.6 1018.6 0.2
17/10:30pm 9.9 6.2 7.8 87 1.0 NNE 17 26 9 14 1019.0 1019.0 0.2
17/10:00pm 9.9 6.0 7.3 84 1.2 N 17 22 9 12 1019.4 1019.4 0.2
17/09:30pm 10.3 6.4 7.0 80 1.6 N 17 24 9 13 1019.5 1019.5 0.2

Other formats

Comma delimited format used in spreadsheet applications
http://www.bom.gov.au/fwo/IDV60801/IDV60801.94865.axf

JavaScript Object Notation format (JSON) in row-major order
http://www.bom.gov.au/fwo/IDV60801/IDV60801.94865.json

Data quality

Most of these data are generated automatically and are frequently updated. Quality checks on data are not normally performed. It is possible for incorrect values to appear. Refer to information at About Latest Weather Observations and please check the disclaimer before using these data.